Thursday, January 18, 2018, 8:56 PM EST
Back to Local

KMRB, Martinsburg Eastern Wv Reg

Location: Martinsburg, WV, United States Lat: 39.4
Local Time: 8:56 PM EST ( 1:56 GMT) Lon: -77.983
Time Zone: US/Eastern Elev: 557 ft

Show me the last for .
Show Coded

Time T Td Feel RH Dir Speed Gust Alt SLP Vis Weather Sky Remarks
2018-01-18 19:53 29 6 25 37 180° 3 - 30.08 30.10 10 CLR None
2018-01-18 18:53 35 4 28 26 290° 9 - 30.06 30.08 10 CLR 6-hr Min Temp (7pm): 32.0°F
6-hr Max Temp (7pm): 42.1°F
2018-01-18 17:53 37 3 30 23 310° 10 - 30.05 30.07 10 CLR None
2018-01-18 16:53 39 3 33 21 280° 8 - 30.03 30.05 10 CLR None
2018-01-18 15:53 42 2 35 18 300° 13 - 30.02 30.03 10 CLR None
2018-01-18 14:53 41 5 35 21 260° 10 - 30.02 30.04 10 CLR None
2018-01-18 13:53 41 5 33 21 260° 15 - 30.05 30.07 10 CLR None
2018-01-18 12:53 37 5 29 25 280° 13 - 30.07 30.09 10 CLR 6-hr Min Temp (1pm): 16.0°F
6-hr Max Temp (1pm): 37.0°F
2018-01-18 11:53 36 4 28 25 250° 13 - 30.11 30.13 10 CLR None
2018-01-18 10:53 32 5 20 31 250° 16 20 30.15 30.16 10 CLR None
2018-01-18 09:53 27 5 22 38 180° 5 - 30.17 30.19 10 CLR None
2018-01-18 08:53 24 5 18 43 190° 5 - 30.17 30.19 10 CLR None
2018-01-18 07:53 16 4 10 58 220° 3 - 30.17 30.20 10 CLR None
2018-01-18 06:53 20 4 11 49 Variable 7 - 30.17 30.19 10 CLR 6-hr Min Temp (7am): 12.0°F
6-hr Max Temp (7am): 19.9°F
2018-01-18 05:53 16 4 - 58 - Calm - 30.16 30.19 10 CLR None
2018-01-18 04:53 15 4 5 60 270° 7 - 30.16 30.19 10 CLR None
2018-01-18 03:53 17 4 9 55 300° 6 - 30.19 30.21 10 CLR None
2018-01-18 02:53 16 5 4 61 290° 9 - 30.22 30.24 10 CLR None
2018-01-18 01:53 13 4 5 66 Variable 5 - 30.24 30.27 10 CLR None
2018-01-18 00:53 13 5 7 69 190° 3 - 30.26 30.29 10 CLR 6-hr Min Temp (1am): 12.9°F
6-hr Max Temp (1am): 19.0°F
2018-01-17 23:53 16 5 7 61 270° 6 - 30.29 30.31 10 CLR 24-hr Min Temp (12am): 14.0°F
24-hr Max Temp (12am): 30.0°F
2018-01-17 22:53 16 4 4 58 290° 9 - 30.30 30.33 10 CLR None
2018-01-17 21:53 15 3 - 58 - Calm - 30.32 30.35 10 CLR None

Support USWX by starting your Amazon purchase here.